sensor_id;sensor_type;location;lat;lon;timestamp;P1;durP1;ratioP1;P2;durP2;ratioP2
41546;SDS011;27271;45.412;10.852;2022-12-07T00:00:40;19.65;;;8.43;;
41546;SDS011;27271;45.412;10.852;2022-12-07T00:04:03;23.13;;;9.10;;
41546;SDS011;27271;45.412;10.852;2022-12-07T00:07:26;19.55;;;8.45;;
41546;SDS011;27271;45.412;10.852;2022-12-07T00:10:48;14.73;;;7.53;;
41546;SDS011;27271;45.412;10.852;2022-12-07T00:14:11;21.00;;;8.65;;
41546;SDS011;27271;45.412;10.852;2022-12-07T00:17:35;22.23;;;9.55;;
41546;SDS011;27271;45.412;10.852;2022-12-07T00:21:00;25.65;;;10.43;;
41546;SDS011;27271;45.412;10.852;2022-12-07T00:24:23;23.02;;;11.50;;
41546;SDS011;27271;45.412;10.852;2022-12-07T00:27:45;25.98;;;9.63;;
41546;SDS011;27271;45.412;10.852;2022-12-07T00:31:09;22.95;;;9.73;;
41546;SDS011;27271;45.412;10.852;2022-12-07T00:34:32;23.00;;;8.55;;
41546;SDS011;27271;45.412;10.852;2022-12-07T00:37:54;20.98;;;8.75;;
41546;SDS011;27271;45.412;10.852;2022-12-07T00:41:21;23.45;;;8.05;;
41546;SDS011;27271;45.412;10.852;2022-12-07T00:44:44;21.67;;;8.43;;
41546;SDS011;27271;45.412;10.852;2022-12-07T00:48:06;23.45;;;8.88;;
41546;SDS011;27271;45.412;10.852;2022-12-07T00:51:28;21.52;;;10.00;;
41546;SDS011;27271;45.412;10.852;2022-12-07T00:54:51;36.75;;;11.85;;
41546;SDS011;27271;45.412;10.852;2022-12-07T00:58:13;30.55;;;10.90;;
41546;SDS011;27271;45.412;10.852;2022-12-07T01:01:35;28.27;;;11.02;;
41546;SDS011;27271;45.412;10.852;2022-12-07T01:04:58;28.92;;;10.15;;
41546;SDS011;27271;45.412;10.852;2022-12-07T01:08:20;30.88;;;11.23;;
41546;SDS011;27271;45.412;10.852;2022-12-07T01:11:43;22.40;;;9.52;;
41546;SDS011;27271;45.412;10.852;2022-12-07T01:15:05;19.42;;;9.13;;
41546;SDS011;27271;45.412;10.852;2022-12-07T01:18:29;25.63;;;8.80;;
41546;SDS011;27271;45.412;10.852;2022-12-07T01:21:53;27.15;;;9.32;;
41546;SDS011;27271;45.412;10.852;2022-12-07T01:25:15;18.52;;;7.90;;
41546;SDS011;27271;45.412;10.852;2022-12-07T01:28:37;22.73;;;8.35;;
41546;SDS011;27271;45.412;10.852;2022-12-07T01:32:00;20.75;;;8.20;;
41546;SDS011;27271;45.412;10.852;2022-12-07T01:35:22;20.55;;;9.13;;
41546;SDS011;27271;45.412;10.852;2022-12-07T01:38:45;16.58;;;8.18;;
41546;SDS011;27271;45.412;10.852;2022-12-07T01:42:11;23.30;;;9.00;;
41546;SDS011;27271;45.412;10.852;2022-12-07T01:45:37;16.95;;;7.55;;
41546;SDS011;27271;45.412;10.852;2022-12-07T01:49:00;21.00;;;8.00;;
41546;SDS011;27271;45.412;10.852;2022-12-07T01:52:28;19.27;;;8.38;;
41546;SDS011;27271;45.412;10.852;2022-12-07T01:55:54;22.77;;;8.18;;
41546;SDS011;27271;45.412;10.852;2022-12-07T01:59:18;18.98;;;8.13;;
41546;SDS011;27271;45.412;10.852;2022-12-07T02:06:23;18.88;;;7.15;;
41546;SDS011;27271;45.412;10.852;2022-12-07T02:09:47;16.25;;;8.35;;
41546;SDS011;27271;45.412;10.852;2022-12-07T02:27:47;20.50;;;7.25;;
41546;SDS011;27271;45.412;10.852;2022-12-07T02:31:18;14.23;;;7.50;;
41546;SDS011;27271;45.412;10.852;2022-12-07T02:38:35;17.38;;;6.50;;
41546;SDS011;27271;45.412;10.852;2022-12-07T02:42:03;13.85;;;6.68;;
41546;SDS011;27271;45.412;10.852;2022-12-07T02:45:34;17.13;;;7.20;;
41546;SDS011;27271;45.412;10.852;2022-12-07T02:48:58;19.65;;;6.90;;
41546;SDS011;27271;45.412;10.852;2022-12-07T02:52:21;17.50;;;6.95;;
41546;SDS011;27271;45.412;10.852;2022-12-07T02:55:43;13.93;;;5.60;;
41546;SDS011;27271;45.412;10.852;2022-12-07T03:06:20;14.68;;;6.25;;
41546;SDS011;27271;45.412;10.852;2022-12-07T03:13:25;11.95;;;6.10;;
41546;SDS011;27271;45.412;10.852;2022-12-07T03:17:10;19.42;;;7.18;;
41546;SDS011;27271;45.412;10.852;2022-12-07T03:20:35;21.92;;;7.07;;
41546;SDS011;27271;45.412;10.852;2022-12-07T03:24:02;13.13;;;6.43;;
41546;SDS011;27271;45.412;10.852;2022-12-07T03:27:32;18.17;;;6.10;;
41546;SDS011;27271;45.412;10.852;2022-12-07T03:31:02;24.55;;;6.55;;
41546;SDS011;27271;45.412;10.852;2022-12-07T03:42:06;14.00;;;7.20;;
41546;SDS011;27271;45.412;10.852;2022-12-07T03:45:41;13.35;;;6.25;;
41546;SDS011;27271;45.412;10.852;2022-12-07T03:49:15;22.88;;;6.82;;
41546;SDS011;27271;45.412;10.852;2022-12-07T03:52:53;20.63;;;6.30;;
41546;SDS011;27271;45.412;10.852;2022-12-07T03:56:36;17.27;;;6.80;;
41546;SDS011;27271;45.412;10.852;2022-12-07T04:00:00;12.07;;;6.70;;
41546;SDS011;27271;45.412;10.852;2022-12-07T04:03:32;13.50;;;6.25;;
41546;SDS011;27271;45.412;10.852;2022-12-07T04:06:54;10.90;;;6.10;;
41546;SDS011;27271;45.412;10.852;2022-12-07T04:10:16;10.25;;;5.50;;
41546;SDS011;27271;45.412;10.852;2022-12-07T04:13:39;13.68;;;5.82;;
41546;SDS011;27271;45.412;10.852;2022-12-07T04:17:19;15.68;;;5.72;;
41546;SDS011;27271;45.412;10.852;2022-12-07T04:20:41;12.88;;;6.57;;
41546;SDS011;27271;45.412;10.852;2022-12-07T04:24:04;11.32;;;5.55;;
41546;SDS011;27271;45.412;10.852;2022-12-07T04:27:26;11.30;;;5.85;;
41546;SDS011;27271;45.412;10.852;2022-12-07T04:30:48;11.82;;;5.43;;
41546;SDS011;27271;45.412;10.852;2022-12-07T04:34:10;11.27;;;5.60;;
41546;SDS011;27271;45.412;10.852;2022-12-07T04:37:33;11.05;;;5.15;;
41546;SDS011;27271;45.412;10.852;2022-12-07T04:40:55;12.93;;;5.63;;
41546;SDS011;27271;45.412;10.852;2022-12-07T04:44:17;9.98;;;5.38;;
41546;SDS011;27271;45.412;10.852;2022-12-07T04:47:40;11.27;;;4.90;;
41546;SDS011;27271;45.412;10.852;2022-12-07T04:51:02;14.60;;;6.45;;
41546;SDS011;27271;45.412;10.852;2022-12-07T04:54:25;9.93;;;5.30;;
41546;SDS011;27271;45.412;10.852;2022-12-07T04:57:47;8.98;;;4.30;;
41546;SDS011;27271;45.412;10.852;2022-12-07T05:01:09;8.02;;;4.90;;
41546;SDS011;27271;45.412;10.852;2022-12-07T05:04:32;9.15;;;5.15;;
41546;SDS011;27271;45.412;10.852;2022-12-07T05:07:54;11.57;;;5.35;;
41546;SDS011;27271;45.412;10.852;2022-12-07T05:11:16;20.45;;;5.20;;
41546;SDS011;27271;45.412;10.852;2022-12-07T05:14:57;38.35;;;6.90;;
41546;SDS011;27271;45.412;10.852;2022-12-07T05:18:19;7.45;;;4.22;;
41546;SDS011;27271;45.412;10.852;2022-12-07T05:21:41;7.43;;;4.25;;
41546;SDS011;27271;45.412;10.852;2022-12-07T05:25:03;8.05;;;4.47;;
41546;SDS011;27271;45.412;10.852;2022-12-07T05:28:25;8.50;;;4.90;;
41546;SDS011;27271;45.412;10.852;2022-12-07T05:31:47;9.32;;;4.15;;
41546;SDS011;27271;45.412;10.852;2022-12-07T05:35:09;9.18;;;4.38;;
41546;SDS011;27271;45.412;10.852;2022-12-07T05:38:32;9.85;;;4.72;;
41546;SDS011;27271;45.412;10.852;2022-12-07T05:41:54;7.47;;;4.15;;
41546;SDS011;27271;45.412;10.852;2022-12-07T05:48:56;10.15;;;4.43;;
41546;SDS011;27271;45.412;10.852;2022-12-07T05:52:18;9.30;;;4.68;;
41546;SDS011;27271;45.412;10.852;2022-12-07T05:55:41;12.52;;;5.35;;
41546;SDS011;27271;45.412;10.852;2022-12-07T05:59:03;11.48;;;5.10;;
41546;SDS011;27271;45.412;10.852;2022-12-07T06:02:43;10.30;;;4.68;;
41546;SDS011;27271;45.412;10.852;2022-12-07T06:06:06;9.82;;;5.18;;
41546;SDS011;27271;45.412;10.852;2022-12-07T06:09:28;18.60;;;7.00;;
41546;SDS011;27271;45.412;10.852;2022-12-07T06:12:50;12.10;;;5.80;;
41546;SDS011;27271;45.412;10.852;2022-12-07T06:16:12;9.23;;;5.50;;
41546;SDS011;27271;45.412;10.852;2022-12-07T06:19:34;10.45;;;5.68;;
41546;SDS011;27271;45.412;10.852;2022-12-07T06:22:56;12.00;;;5.70;;
41546;SDS011;27271;45.412;10.852;2022-12-07T06:26:19;9.13;;;4.78;;
41546;SDS011;27271;45.412;10.852;2022-12-07T06:29:41;14.75;;;4.82;;
41546;SDS011;27271;45.412;10.852;2022-12-07T06:33:03;14.50;;;6.15;;
41546;SDS011;27271;45.412;10.852;2022-12-07T06:36:26;10.90;;;5.25;;
41546;SDS011;27271;45.412;10.852;2022-12-07T06:39:48;7.68;;;4.75;;
41546;SDS011;27271;45.412;10.852;2022-12-07T06:43:10;7.63;;;4.00;;
41546;SDS011;27271;45.412;10.852;2022-12-07T06:46:32;11.38;;;5.10;;
41546;SDS011;27271;45.412;10.852;2022-12-07T06:49:56;10.38;;;5.32;;
41546;SDS011;27271;45.412;10.852;2022-12-07T06:53:19;9.95;;;4.90;;
41546;SDS011;27271;45.412;10.852;2022-12-07T06:56:41;39.33;;;16.88;;
41546;SDS011;27271;45.412;10.852;2022-12-07T07:00:04;20.25;;;10.20;;
41546;SDS011;27271;45.412;10.852;2022-12-07T07:03:27;16.80;;;7.13;;
41546;SDS011;27271;45.412;10.852;2022-12-07T07:06:49;14.40;;;7.32;;
41546;SDS011;27271;45.412;10.852;2022-12-07T07:10:20;12.50;;;6.10;;
41546;SDS011;27271;45.412;10.852;2022-12-07T07:13:42;9.45;;;5.20;;
41546;SDS011;27271;45.412;10.852;2022-12-07T07:17:04;8.10;;;5.03;;
41546;SDS011;27271;45.412;10.852;2022-12-07T07:20:26;13.05;;;6.72;;
41546;SDS011;27271;45.412;10.852;2022-12-07T07:23:48;15.20;;;7.13;;
41546;SDS011;27271;45.412;10.852;2022-12-07T07:27:11;12.65;;;6.60;;
41546;SDS011;27271;45.412;10.852;2022-12-07T07:30:33;18.75;;;9.57;;
41546;SDS011;27271;45.412;10.852;2022-12-07T07:33:55;21.23;;;9.55;;
41546;SDS011;27271;45.412;10.852;2022-12-07T07:37:17;22.00;;;9.98;;
41546;SDS011;27271;45.412;10.852;2022-12-07T07:40:42;22.80;;;10.73;;
41546;SDS011;27271;45.412;10.852;2022-12-07T07:44:04;25.02;;;12.65;;
41546;SDS011;27271;45.412;10.852;2022-12-07T07:47:26;33.03;;;12.52;;
41546;SDS011;27271;45.412;10.852;2022-12-07T07:50:50;29.95;;;13.63;;
41546;SDS011;27271;45.412;10.852;2022-12-07T07:54:13;38.83;;;17.08;;
41546;SDS011;27271;45.412;10.852;2022-12-07T07:57:35;35.80;;;15.77;;
41546;SDS011;27271;45.412;10.852;2022-12-07T08:01:05;38.08;;;16.98;;
41546;SDS011;27271;45.412;10.852;2022-12-07T08:04:28;37.47;;;16.83;;
41546;SDS011;27271;45.412;10.852;2022-12-07T08:07:50;31.55;;;14.55;;
41546;SDS011;27271;45.412;10.852;2022-12-07T08:11:12;30.48;;;15.18;;
41546;SDS011;27271;45.412;10.852;2022-12-07T08:14:34;29.20;;;15.30;;
41546;SDS011;27271;45.412;10.852;2022-12-07T08:17:56;38.72;;;17.75;;
41546;SDS011;27271;45.412;10.852;2022-12-07T08:21:19;40.13;;;20.95;;
41546;SDS011;27271;45.412;10.852;2022-12-07T08:24:41;36.20;;;17.45;;
41546;SDS011;27271;45.412;10.852;2022-12-07T08:29:19;31.50;;;16.25;;
41546;SDS011;27271;45.412;10.852;2022-12-07T08:32:43;32.42;;;16.40;;
41546;SDS011;27271;45.412;10.852;2022-12-07T08:36:08;29.75;;;15.13;;
41546;SDS011;27271;45.412;10.852;2022-12-07T08:39:32;29.05;;;14.48;;
41546;SDS011;27271;45.412;10.852;2022-12-07T08:42:54;24.98;;;13.93;;
41546;SDS011;27271;45.412;10.852;2022-12-07T08:46:20;21.52;;;11.45;;
41546;SDS011;27271;45.412;10.852;2022-12-07T08:49:55;20.30;;;10.35;;
41546;SDS011;27271;45.412;10.852;2022-12-07T08:53:17;23.90;;;10.65;;
41546;SDS011;27271;45.412;10.852;2022-12-07T08:56:39;23.65;;;11.80;;
41546;SDS011;27271;45.412;10.852;2022-12-07T09:00:03;18.58;;;10.88;;
41546;SDS011;27271;45.412;10.852;2022-12-07T09:03:26;19.95;;;10.55;;
41546;SDS011;27271;45.412;10.852;2022-12-07T09:06:48;15.25;;;8.82;;
41546;SDS011;27271;45.412;10.852;2022-12-07T09:10:11;12.40;;;7.93;;
41546;SDS011;27271;45.412;10.852;2022-12-07T09:13:33;11.25;;;6.97;;
41546;SDS011;27271;45.412;10.852;2022-12-07T09:16:55;12.45;;;6.40;;
41546;SDS011;27271;45.412;10.852;2022-12-07T09:20:25;10.88;;;6.30;;
41546;SDS011;27271;45.412;10.852;2022-12-07T09:23:48;7.80;;;5.80;;
41546;SDS011;27271;45.412;10.852;2022-12-07T09:27:11;11.00;;;5.93;;
41546;SDS011;27271;45.412;10.852;2022-12-07T09:30:33;8.27;;;5.90;;
41546;SDS011;27271;45.412;10.852;2022-12-07T09:34:15;9.57;;;6.15;;
41546;SDS011;27271;45.412;10.852;2022-12-07T09:37:37;10.20;;;5.75;;
41546;SDS011;27271;45.412;10.852;2022-12-07T09:41:03;14.18;;;6.68;;
41546;SDS011;27271;45.412;10.852;2022-12-07T09:44:27;12.60;;;6.82;;
41546;SDS011;27271;45.412;10.852;2022-12-07T09:47:49;12.85;;;6.88;;
41546;SDS011;27271;45.412;10.852;2022-12-07T09:51:23;22.67;;;7.85;;
41546;SDS011;27271;45.412;10.852;2022-12-07T09:54:47;16.35;;;7.90;;
41546;SDS011;27271;45.412;10.852;2022-12-07T09:58:29;14.10;;;6.97;;
41546;SDS011;27271;45.412;10.852;2022-12-07T10:01:52;13.88;;;7.32;;
41546;SDS011;27271;45.412;10.852;2022-12-07T10:05:15;16.48;;;6.97;;
41546;SDS011;27271;45.412;10.852;2022-12-07T10:08:47;11.43;;;6.25;;
41546;SDS011;27271;45.412;10.852;2022-12-07T10:12:10;12.43;;;7.13;;
41546;SDS011;27271;45.412;10.852;2022-12-07T10:15:46;13.00;;;7.07;;
41546;SDS011;27271;45.412;10.852;2022-12-07T10:19:26;16.85;;;8.18;;
41546;SDS011;27271;45.412;10.852;2022-12-07T10:22:57;16.85;;;7.95;;
41546;SDS011;27271;45.412;10.852;2022-12-07T10:26:33;12.50;;;6.72;;
41546;SDS011;27271;45.412;10.852;2022-12-07T10:29:58;11.93;;;7.65;;
41546;SDS011;27271;45.412;10.852;2022-12-07T10:33:37;11.82;;;6.55;;
41546;SDS011;27271;45.412;10.852;2022-12-07T10:40:35;12.27;;;6.93;;
41546;SDS011;27271;45.412;10.852;2022-12-07T10:44:00;14.57;;;8.48;;
41546;SDS011;27271;45.412;10.852;2022-12-07T10:47:28;11.65;;;6.53;;
41546;SDS011;27271;45.412;10.852;2022-12-07T10:51:10;12.50;;;6.63;;
41546;SDS011;27271;45.412;10.852;2022-12-07T10:58:36;15.05;;;7.85;;
41546;SDS011;27271;45.412;10.852;2022-12-07T11:09:33;13.30;;;7.63;;
41546;SDS011;27271;45.412;10.852;2022-12-07T11:27:42;12.23;;;7.60;;
41546;SDS011;27271;45.412;10.852;2022-12-07T11:31:15;12.15;;;7.32;;
41546;SDS011;27271;45.412;10.852;2022-12-07T11:35:15;14.18;;;7.38;;
41546;SDS011;27271;45.412;10.852;2022-12-07T11:42:06;11.98;;;7.38;;
41546;SDS011;27271;45.412;10.852;2022-12-07T11:45:37;14.13;;;9.05;;
41546;SDS011;27271;45.412;10.852;2022-12-07T11:57:02;12.32;;;8.02;;
41546;SDS011;27271;45.412;10.852;2022-12-07T12:00:37;14.70;;;9.18;;
41546;SDS011;27271;45.412;10.852;2022-12-07T12:04:12;14.80;;;9.32;;
41546;SDS011;27271;45.412;10.852;2022-12-07T12:07:44;16.00;;;10.65;;
41546;SDS011;27271;45.412;10.852;2022-12-07T12:19:33;23.52;;;12.48;;
41546;SDS011;27271;45.412;10.852;2022-12-07T12:26:37;20.80;;;12.55;;
41546;SDS011;27271;45.412;10.852;2022-12-07T12:30:01;22.90;;;12.65;;
41546;SDS011;27271;45.412;10.852;2022-12-07T12:33:27;25.42;;;14.25;;
41546;SDS011;27271;45.412;10.852;2022-12-07T12:36:51;24.25;;;13.98;;
41546;SDS011;27271;45.412;10.852;2022-12-07T12:43:46;21.63;;;13.65;;
41546;SDS011;27271;45.412;10.852;2022-12-07T12:51:35;26.83;;;16.27;;
41546;SDS011;27271;45.412;10.852;2022-12-07T12:54:58;29.75;;;17.25;;
41546;SDS011;27271;45.412;10.852;2022-12-07T12:58:30;26.02;;;14.73;;
41546;SDS011;27271;45.412;10.852;2022-12-07T13:05:38;35.10;;;17.88;;
41546;SDS011;27271;45.412;10.852;2022-12-07T13:09:01;32.25;;;18.10;;
41546;SDS011;27271;45.412;10.852;2022-12-07T13:12:39;32.13;;;17.55;;
41546;SDS011;27271;45.412;10.852;2022-12-07T13:23:58;38.33;;;18.40;;
41546;SDS011;27271;45.412;10.852;2022-12-07T13:27:07;29.98;;;17.33;;
41546;SDS011;27271;45.412;10.852;2022-12-07T13:30:33;29.98;;;16.63;;
41546;SDS011;27271;45.412;10.852;2022-12-07T13:37:55;28.50;;;16.35;;
41546;SDS011;27271;45.412;10.852;2022-12-07T13:41:48;33.08;;;16.73;;
41546;SDS011;27271;45.412;10.852;2022-12-07T13:45:24;31.35;;;15.85;;
41546;SDS011;27271;45.412;10.852;2022-12-07T13:49:46;33.08;;;18.48;;
41546;SDS011;27271;45.412;10.852;2022-12-07T13:53:45;36.72;;;18.70;;
41546;SDS011;27271;45.412;10.852;2022-12-07T13:57:24;35.38;;;17.35;;
41546;SDS011;27271;45.412;10.852;2022-12-07T14:00:55;32.20;;;17.92;;
41546;SDS011;27271;45.412;10.852;2022-12-07T14:04:33;37.83;;;18.75;;
41546;SDS011;27271;45.412;10.852;2022-12-07T14:08:01;35.58;;;17.85;;
41546;SDS011;27271;45.412;10.852;2022-12-07T14:11:27;34.10;;;18.10;;
41546;SDS011;27271;45.412;10.852;2022-12-07T14:14:57;34.03;;;17.50;;
41546;SDS011;27271;45.412;10.852;2022-12-07T14:18:31;34.85;;;19.35;;
41546;SDS011;27271;45.412;10.852;2022-12-07T14:22:08;37.60;;;19.00;;
41546;SDS011;27271;45.412;10.852;2022-12-07T14:25:45;36.50;;;18.58;;
41546;SDS011;27271;45.412;10.852;2022-12-07T14:33:04;33.78;;;17.92;;
41546;SDS011;27271;45.412;10.852;2022-12-07T14:36:26;36.33;;;18.95;;
41546;SDS011;27271;45.412;10.852;2022-12-07T14:40:06;33.20;;;17.58;;
41546;SDS011;27271;45.412;10.852;2022-12-07T14:43:30;36.03;;;18.77;;
41546;SDS011;27271;45.412;10.852;2022-12-07T14:46:52;36.13;;;17.20;;
41546;SDS011;27271;45.412;10.852;2022-12-07T14:50:35;38.08;;;19.27;;
41546;SDS011;27271;45.412;10.852;2022-12-07T14:53:59;34.40;;;17.75;;
41546;SDS011;27271;45.412;10.852;2022-12-07T14:57:23;31.73;;;16.05;;
41546;SDS011;27271;45.412;10.852;2022-12-07T15:00:45;33.75;;;18.13;;
41546;SDS011;27271;45.412;10.852;2022-12-07T15:04:08;39.03;;;18.52;;
41546;SDS011;27271;45.412;10.852;2022-12-07T15:07:31;35.63;;;18.00;;
41546;SDS011;27271;45.412;10.852;2022-12-07T15:10:53;37.35;;;17.58;;
41546;SDS011;27271;45.412;10.852;2022-12-07T15:14:15;32.20;;;17.30;;
41546;SDS011;27271;45.412;10.852;2022-12-07T15:17:37;31.58;;;16.73;;
41546;SDS011;27271;45.412;10.852;2022-12-07T15:20:59;35.97;;;18.02;;
41546;SDS011;27271;45.412;10.852;2022-12-07T15:24:21;37.72;;;17.50;;
41546;SDS011;27271;45.412;10.852;2022-12-07T15:27:45;40.35;;;18.92;;
41546;SDS011;27271;45.412;10.852;2022-12-07T15:31:11;42.15;;;18.50;;
41546;SDS011;27271;45.412;10.852;2022-12-07T15:34:57;44.40;;;19.13;;
41546;SDS011;27271;45.412;10.852;2022-12-07T15:38:19;42.83;;;18.75;;
41546;SDS011;27271;45.412;10.852;2022-12-07T15:42:01;40.15;;;19.50;;
41546;SDS011;27271;45.412;10.852;2022-12-07T15:45:23;39.05;;;19.15;;
41546;SDS011;27271;45.412;10.852;2022-12-07T15:48:45;41.08;;;19.10;;
41546;SDS011;27271;45.412;10.852;2022-12-07T15:52:07;39.53;;;17.92;;
41546;SDS011;27271;45.412;10.852;2022-12-07T15:55:29;39.75;;;20.48;;
41546;SDS011;27271;45.412;10.852;2022-12-07T15:58:51;36.05;;;16.90;;
41546;SDS011;27271;45.412;10.852;2022-12-07T16:02:13;34.75;;;17.50;;
41546;SDS011;27271;45.412;10.852;2022-12-07T16:05:36;39.47;;;18.20;;
41546;SDS011;27271;45.412;10.852;2022-12-07T16:08:57;36.70;;;17.63;;
41546;SDS011;27271;45.412;10.852;2022-12-07T16:12:19;39.45;;;18.38;;
41546;SDS011;27271;45.412;10.852;2022-12-07T16:15:42;34.03;;;17.92;;
41546;SDS011;27271;45.412;10.852;2022-12-07T16:19:04;31.90;;;16.60;;
41546;SDS011;27271;45.412;10.852;2022-12-07T16:22:26;36.33;;;16.40;;
41546;SDS011;27271;45.412;10.852;2022-12-07T16:25:48;34.08;;;16.90;;
41546;SDS011;27271;45.412;10.852;2022-12-07T16:29:11;35.17;;;19.63;;
41546;SDS011;27271;45.412;10.852;2022-12-07T16:32:34;40.95;;;19.23;;
41546;SDS011;27271;45.412;10.852;2022-12-07T16:35:57;38.25;;;17.52;;
41546;SDS011;27271;45.412;10.852;2022-12-07T16:39:19;30.17;;;16.85;;
41546;SDS011;27271;45.412;10.852;2022-12-07T16:42:41;39.83;;;16.08;;
41546;SDS011;27271;45.412;10.852;2022-12-07T16:46:03;35.05;;;17.10;;
41546;SDS011;27271;45.412;10.852;2022-12-07T16:49:26;28.58;;;14.90;;
41546;SDS011;27271;45.412;10.852;2022-12-07T16:52:48;33.40;;;17.00;;
41546;SDS011;27271;45.412;10.852;2022-12-07T16:56:14;37.83;;;16.95;;
41546;SDS011;27271;45.412;10.852;2022-12-07T16:59:37;42.72;;;21.17;;
41546;SDS011;27271;45.412;10.852;2022-12-07T17:02:59;41.95;;;20.15;;
41546;SDS011;27271;45.412;10.852;2022-12-07T17:06:23;37.22;;;17.95;;
41546;SDS011;27271;45.412;10.852;2022-12-07T17:09:47;38.25;;;18.73;;
41546;SDS011;27271;45.412;10.852;2022-12-07T17:13:09;44.13;;;19.50;;
41546;SDS011;27271;45.412;10.852;2022-12-07T17:16:58;32.22;;;17.33;;
41546;SDS011;27271;45.412;10.852;2022-12-07T17:20:21;42.42;;;19.25;;
41546;SDS011;27271;45.412;10.852;2022-12-07T17:23:45;34.05;;;17.13;;
41546;SDS011;27271;45.412;10.852;2022-12-07T17:27:07;38.38;;;17.52;;
41546;SDS011;27271;45.412;10.852;2022-12-07T17:30:30;36.03;;;18.02;;
41546;SDS011;27271;45.412;10.852;2022-12-07T17:33:52;39.05;;;19.60;;
41546;SDS011;27271;45.412;10.852;2022-12-07T17:37:14;41.50;;;19.67;;
41546;SDS011;27271;45.412;10.852;2022-12-07T17:40:36;40.70;;;20.42;;
41546;SDS011;27271;45.412;10.852;2022-12-07T17:44:00;45.58;;;21.30;;
41546;SDS011;27271;45.412;10.852;2022-12-07T17:47:27;42.75;;;18.90;;
41546;SDS011;27271;45.412;10.852;2022-12-07T17:50:49;38.38;;;18.63;;
41546;SDS011;27271;45.412;10.852;2022-12-07T17:57:52;35.63;;;16.58;;
41546;SDS011;27271;45.412;10.852;2022-12-07T18:01:14;35.60;;;17.17;;
41546;SDS011;27271;45.412;10.852;2022-12-07T18:04:47;46.80;;;21.90;;
41546;SDS011;27271;45.412;10.852;2022-12-07T18:08:14;51.55;;;22.65;;
41546;SDS011;27271;45.412;10.852;2022-12-07T18:11:37;45.85;;;21.58;;
41546;SDS011;27271;45.412;10.852;2022-12-07T18:14:59;47.58;;;21.35;;
41546;SDS011;27271;45.412;10.852;2022-12-07T18:18:22;47.75;;;22.33;;
41546;SDS011;27271;45.412;10.852;2022-12-07T18:21:46;39.72;;;19.25;;
41546;SDS011;27271;45.412;10.852;2022-12-07T18:25:10;52.20;;;19.52;;
41546;SDS011;27271;45.412;10.852;2022-12-07T18:28:39;38.33;;;19.58;;
41546;SDS011;27271;45.412;10.852;2022-12-07T18:32:03;35.72;;;17.05;;
41546;SDS011;27271;45.412;10.852;2022-12-07T18:35:27;32.38;;;15.57;;
41546;SDS011;27271;45.412;10.852;2022-12-07T18:38:49;37.58;;;18.42;;
41546;SDS011;27271;45.412;10.852;2022-12-07T18:42:12;34.88;;;16.73;;
41546;SDS011;27271;45.412;10.852;2022-12-07T18:45:34;36.67;;;16.42;;
41546;SDS011;27271;45.412;10.852;2022-12-07T18:48:58;38.20;;;17.83;;
41546;SDS011;27271;45.412;10.852;2022-12-07T18:52:20;33.58;;;16.65;;
41546;SDS011;27271;45.412;10.852;2022-12-07T18:55:43;36.47;;;16.60;;
41546;SDS011;27271;45.412;10.852;2022-12-07T18:59:05;33.40;;;14.73;;
41546;SDS011;27271;45.412;10.852;2022-12-07T19:02:47;33.20;;;14.80;;
41546;SDS011;27271;45.412;10.852;2022-12-07T19:06:09;30.55;;;13.40;;
41546;SDS011;27271;45.412;10.852;2022-12-07T19:09:31;27.80;;;13.88;;
41546;SDS011;27271;45.412;10.852;2022-12-07T19:12:54;26.17;;;13.25;;
41546;SDS011;27271;45.412;10.852;2022-12-07T19:16:16;24.17;;;13.48;;
41546;SDS011;27271;45.412;10.852;2022-12-07T19:19:40;50.05;;;21.25;;
41546;SDS011;27271;45.412;10.852;2022-12-07T19:23:06;32.30;;;14.10;;
41546;SDS011;27271;45.412;10.852;2022-12-07T19:26:29;30.33;;;15.15;;
41546;SDS011;27271;45.412;10.852;2022-12-07T19:29:51;41.58;;;16.67;;
41546;SDS011;27271;45.412;10.852;2022-12-07T19:33:17;36.90;;;15.60;;
41546;SDS011;27271;45.412;10.852;2022-12-07T19:36:40;31.23;;;13.85;;
41546;SDS011;27271;45.412;10.852;2022-12-07T19:40:03;30.92;;;14.25;;
41546;SDS011;27271;45.412;10.852;2022-12-07T19:43:33;31.88;;;13.73;;
41546;SDS011;27271;45.412;10.852;2022-12-07T19:46:57;38.08;;;16.13;;
41546;SDS011;27271;45.412;10.852;2022-12-07T19:50:25;35.10;;;15.30;;
41546;SDS011;27271;45.412;10.852;2022-12-07T19:53:47;34.13;;;15.30;;
41546;SDS011;27271;45.412;10.852;2022-12-07T19:57:10;33.95;;;15.63;;
41546;SDS011;27271;45.412;10.852;2022-12-07T20:00:36;35.97;;;15.60;;
41546;SDS011;27271;45.412;10.852;2022-12-07T20:03:59;33.42;;;16.98;;
41546;SDS011;27271;45.412;10.852;2022-12-07T20:07:21;46.30;;;20.67;;
41546;SDS011;27271;45.412;10.852;2022-12-07T20:10:44;41.78;;;19.98;;
41546;SDS011;27271;45.412;10.852;2022-12-07T20:14:09;42.78;;;20.77;;
41546;SDS011;27271;45.412;10.852;2022-12-07T20:17:33;42.67;;;16.25;;
41546;SDS011;27271;45.412;10.852;2022-12-07T20:20:55;39.53;;;17.13;;
41546;SDS011;27271;45.412;10.852;2022-12-07T20:24:21;46.80;;;18.50;;
41546;SDS011;27271;45.412;10.852;2022-12-07T20:27:58;47.65;;;17.95;;
41546;SDS011;27271;45.412;10.852;2022-12-07T20:31:22;40.08;;;18.80;;
41546;SDS011;27271;45.412;10.852;2022-12-07T20:34:46;45.95;;;19.45;;
41546;SDS011;27271;45.412;10.852;2022-12-07T20:38:10;35.55;;;17.60;;
41546;SDS011;27271;45.412;10.852;2022-12-07T20:41:34;39.25;;;19.15;;
41546;SDS011;27271;45.412;10.852;2022-12-07T20:45:15;38.67;;;17.90;;
41546;SDS011;27271;45.412;10.852;2022-12-07T20:48:43;41.38;;;18.48;;
41546;SDS011;27271;45.412;10.852;2022-12-07T20:52:06;38.78;;;18.80;;
41546;SDS011;27271;45.412;10.852;2022-12-07T20:55:39;39.03;;;17.20;;
41546;SDS011;27271;45.412;10.852;2022-12-07T20:59:04;42.53;;;18.98;;
41546;SDS011;27271;45.412;10.852;2022-12-07T21:02:31;45.60;;;19.90;;
41546;SDS011;27271;45.412;10.852;2022-12-07T21:06:00;41.80;;;21.60;;
41546;SDS011;27271;45.412;10.852;2022-12-07T21:09:37;50.08;;;18.15;;
41546;SDS011;27271;45.412;10.852;2022-12-07T21:12:59;44.55;;;20.75;;
41546;SDS011;27271;45.412;10.852;2022-12-07T21:16:31;35.03;;;17.88;;
41546;SDS011;27271;45.412;10.852;2022-12-07T21:19:54;37.47;;;18.10;;
41546;SDS011;27271;45.412;10.852;2022-12-07T21:23:17;48.92;;;23.23;;
41546;SDS011;27271;45.412;10.852;2022-12-07T21:26:39;51.90;;;22.30;;
41546;SDS011;27271;45.412;10.852;2022-12-07T21:30:02;62.40;;;25.52;;
41546;SDS011;27271;45.412;10.852;2022-12-07T21:33:24;41.50;;;20.45;;
41546;SDS011;27271;45.412;10.852;2022-12-07T21:36:47;40.83;;;19.08;;
41546;SDS011;27271;45.412;10.852;2022-12-07T21:40:09;33.05;;;16.48;;
41546;SDS011;27271;45.412;10.852;2022-12-07T21:43:37;41.63;;;18.10;;
41546;SDS011;27271;45.412;10.852;2022-12-07T21:46:59;40.58;;;19.55;;
41546;SDS011;27271;45.412;10.852;2022-12-07T21:50:22;38.50;;;17.98;;
41546;SDS011;27271;45.412;10.852;2022-12-07T21:53:45;40.33;;;18.98;;
41546;SDS011;27271;45.412;10.852;2022-12-07T21:57:11;40.67;;;17.75;;
41546;SDS011;27271;45.412;10.852;2022-12-07T22:00:38;40.58;;;19.95;;
41546;SDS011;27271;45.412;10.852;2022-12-07T22:04:00;35.75;;;17.65;;